Time;durP1;ratioP1;P1;durP2;ratioP2;P2;SDS_P1;SDS_P2;PMS_P1;PMS_P2;Temp;Humidity;BMP_temperature;BMP_pressure;BME280_temperature;BME280_humidity;BME280_pressure;Samples;Min_cycle;Max_cycle;Signal;HPM_P1;HPM_P2
2021/03/27 00:00:45;;;;;;;55.58;29.67;;;;;;;2.93;78.67;99810.23;1791137;77;21011;-56
2021/03/27 00:03:42;;;;;;;67.58;34.58;;;;;;;2.91;78.81;99805.11;1775031;79;20986;-55
2021/03/27 00:06:21;;;;;;;58.30;32.40;;;;;;;2.91;78.64;99800.33;1772957;78;21426;-56
2021/03/27 00:09:01;;;;;;;80.95;40.23;;;;;;;2.84;78.61;99801.23;1794782;78;20938;-56
2021/03/27 00:11:54;;;;;;;72.10;35.33;;;;;;;2.79;78.71;99798.62;1788487;79;21503;-55
2021/03/27 00:14:47;;;;;;;61.05;32.13;;;;;;;2.75;78.92;99799.78;1778591;79;20967;-56
2021/03/27 00:17:55;;;;;;;58.73;32.73;;;;;;;2.71;79.07;99797.03;1789273;78;21063;-56
2021/03/27 00:21:02;;;;;;;55.58;31.50;;;;;;;2.66;79.27;99797.84;1767868;79;20994;-56
2021/03/27 00:23:46;;;;;;;61.10;33.28;;;;;;;2.60;79.46;99793.88;1765108;78;21097;-54
2021/03/27 00:26:23;;;;;;;66.97;35.92;;;;;;;2.57;79.39;99801.98;1765589;79;21029;-56
2021/03/27 00:28:58;;;;;;;61.75;34.40;;;;;;;2.54;79.48;99793.47;1764540;78;20948;-57
2021/03/27 00:31:46;;;;;;;77.22;41.02;;;;;;;2.50;79.55;99786.31;1792866;79;20939;-55
2021/03/27 00:34:17;;;;;;;70.37;39.13;;;;;;;2.45;79.61;99791.06;1769033;79;21330;-57
2021/03/27 00:36:50;;;;;;;92.47;49.38;;;;;;;2.40;79.73;99793.16;1782431;79;20989;-56
2021/03/27 00:39:26;;;;;;;85.75;46.08;;;;;;;2.38;80.02;99790.66;1795371;79;21559;-56
2021/03/27 00:42:00;;;;;;;71.92;39.58;;;;;;;2.37;80.26;99786.34;1765899;79;21010;-57
2021/03/27 00:44:34;;;;;;;71.83;40.03;;;;;;;2.37;80.53;99788.97;1788244;79;20982;-55
2021/03/27 00:47:02;;;;;;;75.47;41.40;;;;;;;2.37;80.71;99786.34;1763676;81;21376;-56
2021/03/27 00:49:37;;;;;;;71.37;39.63;;;;;;;2.39;80.93;99787.09;1784644;78;21207;-55
2021/03/27 00:52:08;;;;;;;66.02;35.43;;;;;;;2.41;81.03;99787.81;1786077;79;21084;-54
2021/03/27 00:54:43;;;;;;;55.73;32.50;;;;;;;2.44;81.09;99786.28;1787014;79;21761;-55
2021/03/27 00:57:26;;;;;;;51.20;28.87;;;;;;;2.46;81.16;99794.87;1764435;81;21103;-56
2021/03/27 01:00:14;;;;;;;53.85;30.77;;;;;;;2.50;81.21;99790.25;1760329;78;21349;-55
2021/03/27 01:03:08;;;;;;;54.20;31.65;;;;;;;2.54;81.21;99789.53;1704244;81;21092;-56
2021/03/27 01:05:54;;;;;;;63.08;35.10;;;;;;;2.56;81.19;99791.56;1765707;79;20942;-55
2021/03/27 01:08:46;;;;;;;64.70;35.35;;;;;;;2.58;81.07;99793.16;1765672;78;21002;-57
2021/03/27 01:11:33;;;;;;;69.22;38.48;;;;;;;2.58;80.82;99792.31;1727153;81;21001;-55
2021/03/27 01:14:09;;;;;;;77.87;39.70;;;;;;;2.51;80.62;99793.22;1763538;79;21360;-55
2021/03/27 01:16:41;;;;;;;77.97;40.10;;;;;;;2.44;80.35;99788.91;1784803;79;21681;-55
2021/03/27 01:19:31;;;;;;;80.42;41.42;;;;;;;2.35;80.19;99793.50;1768697;79;21029;-54
2021/03/27 01:22:03;;;;;;;60.63;33.55;;;;;;;2.27;80.24;99794.99;1786821;78;21156;-55
2021/03/27 01:24:31;;;;;;;60.78;34.90;;;;;;;2.21;81.01;99798.92;1781789;79;20974;-56
2021/03/27 01:27:28;;;;;;;55.67;32.40;;;;;;;2.22;81.22;99804.52;1783517;78;21362;-56
2021/03/27 01:30:02;;;;;;;68.30;37.40;;;;;;;2.23;81.73;99802.27;1762036;79;20937;-55
2021/03/27 01:32:40;;;;;;;70.70;37.83;;;;;;;2.28;82.02;99801.93;1773531;79;21499;-56
2021/03/27 01:35:16;;;;;;;74.20;41.35;;;;;;;2.24;81.10;99802.61;1765681;80;20926;-56
2021/03/27 01:37:56;;;;;;;85.05;42.75;;;;;;;2.11;80.84;99803.13;1788608;79;21097;-56
2021/03/27 01:40:39;;;;;;;74.05;38.30;;;;;;;1.98;80.97;99795.79;1794749;78;21320;-57
2021/03/27 01:43:37;;;;;;;55.88;31.52;;;;;;;1.92;81.53;99796.68;1770225;79;21575;-57
2021/03/27 01:46:28;;;;;;;;;;;;;;;1.93;82.17;99796.55;1750062;81;21009;-56
2021/03/27 01:49:14;;;;;;;57.15;32.40;;;;;;;1.97;82.41;99790.63;1779807;78;20550;-56
2021/03/27 01:52:14;;;;;;;57.78;32.15;;;;;;;1.96;82.18;99792.41;1763957;79;21136;-56
2021/03/27 01:55:38;;;;;;;66.10;36.98;;;;;;;1.91;82.28;99789.27;1797199;79;21057;-56
2021/03/27 01:58:16;;;;;;;71.90;38.05;;;;;;;1.90;82.63;99793.33;1796512;79;20994;-58
2021/03/27 02:00:49;;;;;;;75.78;38.90;;;;;;;1.86;82.81;99790.07;1768023;79;21523;-57
2021/03/27 02:03:27;;;;;;;66.77;38.02;;;;;;;1.84;82.95;99790.20;1752229;79;21088;-57
2021/03/27 02:06:10;;;;;;;62.58;36.00;;;;;;;1.84;82.97;99797.22;1765827;78;21099;-57
2021/03/27 02:09:09;;;;;;;62.00;35.58;;;;;;;1.84;83.01;99797.22;1785076;78;21370;-56
2021/03/27 02:12:07;;;;;;;65.28;36.33;;;;;;;1.82;83.07;99803.05;1788600;79;21183;-56
2021/03/27 02:14:56;;;;;;;65.30;36.20;;;;;;;1.83;83.13;99796.84;1745860;81;21030;-55
2021/03/27 02:17:48;;;;;;;66.53;34.85;;;;;;;1.82;83.22;99805.68;1765702;78;20982;-57
2021/03/27 02:21:07;;;;;;;68.30;34.80;;;;;;;1.84;83.37;99802.47;1789468;79;21057;-56
2021/03/27 02:24:22;;;;;;;59.73;32.65;;;;;;;1.87;83.48;99810.13;1762065;79;21356;-56
2021/03/27 02:27:14;;;;;;;49.30;29.10;;;;;;;1.92;83.58;99808.48;1790212;79;21128;-57
2021/03/27 02:29:58;;;;;;;54.30;30.02;;;;;;;1.93;83.62;99808.36;1761249;79;21145;-56
2021/03/27 02:33:20;;;;;;;59.33;31.75;;;;;;;1.95;83.60;99814.37;1772661;78;20974;-56
2021/03/27 02:36:17;;;;;;;68.75;34.35;;;;;;;1.97;83.58;99813.78;1783740;78;21072;-56
2021/03/27 02:39:16;;;;;;;65.65;34.75;;;;;;;1.97;83.53;99810.31;1765817;78;21334;-55
2021/03/27 02:42:14;;;;;;;65.08;35.85;;;;;;;1.97;83.53;99811.63;1767825;79;21160;-54
2021/03/27 02:45:13;;;;;;;63.40;34.67;;;;;;;1.97;83.58;99815.09;1768949;79;21152;-54
2021/03/27 02:47:51;;;;;;;66.45;36.68;;;;;;;1.96;83.60;99808.16;1796474;79;21049;-54
2021/03/27 02:50:53;;;;;;;66.12;37.98;;;;;;;1.97;83.51;99818.18;1746187;81;21077;-55
2021/03/27 02:53:38;;;;;;;63.70;36.13;;;;;;;1.96;83.41;99817.80;1765708;78;21360;-56
2021/03/27 02:56:27;;;;;;;68.33;37.83;;;;;;;1.95;83.43;99818.77;1751191;78;21080;-57
2021/03/27 02:59:12;;;;;;;64.37;34.20;;;;;;;1.92;83.45;99817.20;1767797;79;20986;-54
2021/03/27 03:01:54;;;;;;;55.25;32.65;;;;;;;1.92;83.45;99814.58;1780832;79;21048;-56
2021/03/27 03:04:38;;;;;;;59.45;32.25;;;;;;;1.93;83.46;99816.73;1794833;79;21151;-56
2021/03/27 03:07:35;;;;;;;54.85;30.32;;;;;;;1.92;83.45;99811.95;1782636;79;21360;-55
2021/03/27 03:10:36;;;;;;;52.00;30.62;;;;;;;1.96;83.36;99813.87;1813353;76;28097;-56
2021/03/27 03:13:36;;;;;;;55.28;31.02;;;;;;;1.91;83.31;99818.60;1779113;79;20996;-56
2021/03/27 03:16:16;;;;;;;60.88;34.10;;;;;;;1.88;83.29;99817.03;1779859;79;21047;-56
2021/03/27 03:18:58;;;;;;;64.58;35.70;;;;;;;1.86;83.24;99821.55;1779054;79;21057;-55
2021/03/27 03:21:56;;;;;;;69.25;37.40;;;;;;;1.82;83.24;99824.89;1789772;79;20972;-58
2021/03/27 03:24:47;;;;;;;98.95;50.78;;;;;;;1.80;83.21;99816.73;1786518;79;20988;-55
2021/03/27 03:27:26;;;;;;;78.80;42.90;;;;;;;1.80;83.20;99820.66;1799431;79;20982;-56
2021/03/27 03:30:26;;;;;;;78.25;41.18;;;;;;;1.80;83.15;99818.04;1805877;79;21366;-55
2021/03/27 03:33:11;;;;;;;78.02;42.05;;;;;;;1.79;83.16;99821.62;1707685;79;21033;-55
2021/03/27 03:36:04;;;;;;;88.67;47.90;;;;;;;1.79;83.19;99821.62;1783717;79;20978;-57
2021/03/27 03:38:52;;;;;;;83.00;43.55;;;;;;;1.77;83.29;99817.78;1785880;79;20989;-56
2021/03/27 03:41:51;;;;;;;72.85;39.48;;;;;;;1.77;83.41;99816.97;1805434;79;21105;-56
2021/03/27 03:44:36;;;;;;;74.42;39.95;;;;;;;1.77;83.50;99821.72;1747005;80;21461;-56
2021/03/27 03:47:41;;;;;;;69.17;37.15;;;;;;;1.77;83.56;99822.22;1789267;79;21107;-56
2021/03/27 03:50:30;;;;;;;61.98;36.80;;;;;;;1.75;83.47;99820.14;1780642;78;21068;-56
2021/03/27 03:53:27;;;;;;;89.25;42.93;;;;;;;1.69;83.32;99816.66;1777031;79;20887;-57
2021/03/27 03:56:30;;;;;;;106.17;47.85;;;;;;;1.62;83.34;99820.16;1731543;80;21089;-55
2021/03/27 03:59:18;;;;;;;80.97;44.65;;;;;;;1.56;83.40;99820.61;1730875;80;21407;-57
2021/03/27 04:01:53;;;;;;;83.50;43.95;;;;;;;1.53;83.45;99817.34;1707768;80;21042;-57
2021/03/27 04:04:27;;;;;;;77.35;42.58;;;;;;;1.52;83.48;99816.96;1744548;80;21061;-57
2021/03/27 04:07:02;;;;;;;68.52;40.38;;;;;;;1.50;83.52;99823.64;1744096;80;21181;-56
2021/03/27 04:09:35;;;;;;;71.63;40.03;;;;;;;1.47;83.56;99821.22;1732937;80;21072;-58
2021/03/27 04:12:14;;;;;;;120.62;56.53;;;;;;;1.46;83.57;99818.72;1712077;80;21320;-55
2021/03/27 04:14:53;;;;;;;153.47;66.82;;;;;;;1.43;83.67;99825.01;1744387;80;20919;-54
2021/03/27 04:17:29;;;;;;;140.70;60.90;;;;;;;1.41;83.80;99823.44;1744419;80;20943;-55
2021/03/27 04:20:23;;;;;;;110.70;49.20;;;;;;;1.44;83.92;99821.89;1744585;80;21155;-57
2021/03/27 04:23:08;;;;;;;127.90;53.45;;;;;;;1.50;84.07;99824.10;1714860;82;20891;-55
2021/03/27 04:25:43;;;;;;;140.07;62.55;;;;;;;1.62;84.10;99823.25;1745013;80;21150;-56
2021/03/27 04:28:24;;;;;;;109.50;54.70;;;;;;;1.74;84.09;99825.89;1731874;80;20969;-57
2021/03/27 04:31:09;;;;;;;106.35;55.12;;;;;;;1.85;83.99;99825.95;1725372;80;21092;-55
2021/03/27 04:34:03;;;;;;;120.97;63.05;;;;;;;2.00;83.86;99826.69;1720067;80;21021;-57
2021/03/27 04:36:49;;;;;;;90.40;48.73;;;;;;;2.18;83.55;99828.48;1727267;80;20946;-55
2021/03/27 04:39:43;;;;;;;108.10;59.18;;;;;;;2.36;83.10;99831.95;1717206;80;21366;-57
2021/03/27 04:42:22;;;;;;;92.82;54.50;;;;;;;2.56;82.68;99829.18;1730655;80;21176;-58
2021/03/27 04:45:21;;;;;;;80.22;45.00;;;;;;;2.77;82.27;99830.24;1743939;80;20986;-58
2021/03/27 04:48:13;;;;;;;79.53;42.25;;;;;;;2.94;81.65;99829.86;1743836;80;21570;-57
2021/03/27 04:50:47;;;;;;;82.75;45.67;;;;;;;3.10;80.95;99829.05;1732926;80;20986;-57
2021/03/27 04:53:32;;;;;;;78.35;46.05;;;;;;;3.26;80.76;99833.18;1742633;80;21379;-57
2021/03/27 04:56:41;;;;;;;77.25;44.77;;;;;;;3.42;80.49;99836.30;1743464;80;21018;-57
2021/03/27 04:59:49;;;;;;;79.37;41.40;;;;;;;3.57;80.16;99831.21;1745171;80;21623;-56
2021/03/27 05:02:38;;;;;;;77.45;42.90;;;;;;;3.74;79.43;99827.63;1726904;81;21609;-56
2021/03/27 05:05:20;;;;;;;75.83;41.25;;;;;;;3.98;78.99;99831.94;1745567;80;21101;-56
2021/03/27 05:08:19;;;;;;;67.27;39.90;;;;;;;4.24;78.26;99832.04;1745467;80;21599;-55
2021/03/27 05:11:28;;;;;;;67.15;38.08;;;;;;;4.53;77.32;99829.71;1717573;80;21026;-55
2021/03/27 05:14:24;;;;;;;69.53;41.08;;;;;;;4.85;76.20;99824.80;1725228;80;21149;-57
2021/03/27 05:17:06;;;;;;;76.65;40.80;;;;;;;5.18;75.19;99825.63;1743541;80;21354;-58
2021/03/27 05:19:49;;;;;;;84.70;43.70;;;;;;;5.53;74.22;99822.16;1731882;80;21151;-55
2021/03/27 05:22:42;;;;;;;68.40;42.25;;;;;;;5.86;73.00;99817.17;1689408;80;21413;-57
2021/03/27 05:25:24;;;;;;;74.87;40.43;;;;;;;6.13;71.64;99815.61;1743489;80;20954;-56
2021/03/27 05:28:22;;;;;;;74.07;38.85;;;;;;;6.37;70.22;99816.58;1743646;80;20942;-56
2021/03/27 05:31:20;;;;;;;70.92;39.33;;;;;;;6.57;69.36;99816.95;1742553;80;21037;-56
2021/03/27 05:33:54;;;;;;;65.62;40.03;;;;;;;6.87;68.81;99816.52;1725303;80;21135;-58
2021/03/27 05:36:48;;;;;;;67.03;38.70;;;;;;;7.22;68.18;99821.58;1738892;80;21373;-57
2021/03/27 05:39:50;;;;;;;70.42;40.80;;;;;;;7.58;67.38;99823.98;1744881;80;21014;-57
2021/03/27 05:42:45;;;;;;;65.92;40.17;;;;;;;8.01;66.22;99820.76;1730729;80;21061;-57
2021/03/27 05:45:47;;;;;;;65.08;42.27;;;;;;;8.48;65.15;99822.86;1725469;80;20899;-56
2021/03/27 05:48:54;;;;;;;77.15;44.55;;;;;;;8.86;63.54;99821.30;1743392;80;21180;-57
2021/03/27 05:51:35;;;;;;;73.92;46.28;;;;;;;9.23;62.49;99817.13;1741075;80;21163;-55
2021/03/27 05:54:22;;;;;;;76.30;45.63;;;;;;;9.57;61.63;99816.72;1731455;80;20961;-57
2021/03/27 05:57:20;;;;;;;77.05;47.40;;;;;;;9.81;60.64;99810.73;1757278;80;20981;-54
2021/03/27 06:00:12;;;;;;;76.97;45.78;;;;;;;10.08;60.26;99811.89;1767646;80;21011;-57
2021/03/27 06:03:19;;;;;;;73.97;46.13;;;;;;;10.28;59.52;99809.34;1774663;80;21082;-56
2021/03/27 06:06:10;;;;;;;74.35;45.88;;;;;;;10.53;58.58;99803.62;1773655;79;21361;-56
2021/03/27 06:08:57;;;;;;;69.12;44.45;;;;;;;10.78;57.65;99806.66;1770621;80;21023;-58
2021/03/27 06:14:58;;;;;;;65.52;41.00;;;;;;;11.32;56.05;99809.68;1646608;84;21208;-57
2021/03/27 06:21:42;;;;;;;69.67;43.10;;;;;;;11.99;52.56;99807.12;1729729;82;21011;-56
2021/03/27 06:24:53;;;;;;;71.82;43.35;;;;;;;12.22;51.80;99804.88;1727070;82;21123;-58
2021/03/27 06:27:43;;;;;;;66.57;42.83;;;;;;;12.40;51.33;99805.97;1724593;81;21121;-57
2021/03/27 06:30:28;;;;;;;74.00;43.42;;;;;;;12.61;51.11;99803.52;1723083;82;21027;-55
2021/03/27 06:33:15;;;;;;;65.70;43.40;;;;;;;12.91;50.29;99803.98;1728469;82;21070;-60
2021/03/27 06:36:04;;;;;;;68.53;45.60;;;;;;;13.12;49.32;99800.70;1723588;82;21011;-57
2021/03/27 06:39:17;;;;;;;76.70;47.90;;;;;;;13.24;48.88;99802.45;1727657;82;22278;-57
2021/03/27 06:42:14;;;;;;;83.35;52.27;;;;;;;13.43;48.48;99805.45;1705710;82;20936;-54
2021/03/27 06:45:10;;;;;;;71.47;47.20;;;;;;;13.56;47.89;99800.31;1721769;82;20947;-56
2021/03/27 06:48:05;;;;;;;58.17;41.13;;;;;;;13.78;47.30;99808.47;1720848;82;21078;-56
2021/03/27 06:51:01;;;;;;;63.50;41.83;;;;;;;13.92;46.94;99804.98;1721469;82;20992;-56
2021/03/27 06:54:02;;;;;;;68.80;45.05;;;;;;;13.97;46.23;99805.27;1727593;82;21522;-59
2021/03/27 06:56:54;;;;;;;58.33;39.55;;;;;;;13.99;46.30;99809.91;1728038;82;21125;-57
2021/03/27 06:59:30;;;;;;;54.90;37.25;;;;;;;14.16;45.49;99816.73;1733832;82;20943;-55
2021/03/27 07:02:19;;;;;;;44.85;31.97;;;;;;;14.26;45.73;99815.12;1742500;82;21051;-57
2021/03/27 07:05:22;;;;;;;41.70;29.85;;;;;;;14.39;44.50;99820.69;1722140;82;21630;-57
2021/03/27 07:08:32;;;;;;;35.52;26.40;;;;;;;14.51;44.58;99819.19;1734992;82;21365;-57
2021/03/27 07:11:38;;;;;;;38.23;27.35;;;;;;;14.65;44.22;99820.48;1733011;82;21631;-57
2021/03/27 07:14:30;;;;;;;;;;;;;;;14.82;44.00;99817.08;1725680;82;21383;-55
2021/03/27 07:17:22;;;;;;;34.58;25.15;;;;;;;15.04;43.73;99813.42;1723524;82;20539;-56
2021/03/27 07:20:14;;;;;;;28.35;24.18;;;;;;;15.21;43.36;99813.98;1723239;81;21181;-57
2021/03/27 07:23:01;;;;;;;32.23;23.35;;;;;;;15.41;42.78;99811.79;1718171;82;21573;-55
2021/03/27 07:26:22;;;;;;;32.35;25.35;;;;;;;15.64;41.97;99815.64;1714465;82;21039;-56
2021/03/27 07:29:30;;;;;;;26.55;21.27;;;;;;;15.73;41.85;99814.45;1716015;82;21050;-57
2021/03/27 07:31:53;;;;;;;30.48;25.27;;;;;;;15.91;41.45;99809.42;1710717;82;21189;-57
2021/03/27 07:34:55;;;;;;;30.92;24.50;;;;;;;16.04;40.56;99812.19;1688737;82;21003;-57
2021/03/27 07:37:44;;;;;;;24.63;21.77;;;;;;;16.15;40.68;99809.98;1722122;82;21191;-55
2021/03/27 07:40:20;;;;;;;25.00;21.42;;;;;;;16.36;40.37;99813.91;1712561;82;21020;-56
2021/03/27 07:43:05;;;;;;;27.00;21.62;;;;;;;16.48;39.94;99809.62;1712731;82;21074;-55
2021/03/27 07:45:54;;;;;;;25.52;20.92;;;;;;;16.62;39.69;99805.49;1712643;82;20996;-56
2021/03/27 07:48:44;;;;;;;24.18;19.98;;;;;;;16.79;39.17;99811.31;1704760;82;21243;-60
2021/03/27 07:51:29;;;;;;;28.67;21.12;;;;;;;17.00;38.95;99804.95;1722309;81;21350;-61
2021/03/27 07:54:35;;;;;;;23.60;19.73;;;;;;;17.31;38.47;99808.45;1712569;82;20967;-63
2021/03/27 07:57:49;;;;;;;25.45;21.33;;;;;;;17.44;37.69;99808.45;1732239;82;21007;-63
2021/03/27 08:00:46;;;;;;;37.10;25.43;;;;;;;17.45;37.70;99814.12;1636659;85;21172;-59
2021/03/27 08:03:45;;;;;;;30.45;22.60;;;;;;;17.35;38.60;99816.39;1719118;82;21210;-57
2021/03/27 08:06:57;;;;;;;25.20;22.32;;;;;;;17.36;41.69;99816.20;1727701;82;21264;-60
2021/03/27 08:09:56;;;;;;;26.95;20.50;;;;;;;17.55;39.18;99807.84;1712527;82;21059;-62
2021/03/27 08:12:57;;;;;;;21.70;19.52;;;;;;;17.33;37.94;99812.58;1682045;82;20964;-61
2021/03/27 08:15:51;;;;;;;28.07;20.65;;;;;;;17.17;37.71;99809.77;1712444;82;21205;-62
2021/03/27 08:18:39;;;;;;;21.62;19.25;;;;;;;17.16;38.35;99809.45;1726464;82;21094;-58
2021/03/27 08:21:49;;;;;;;21.57;19.30;;;;;;;17.45;38.16;99802.85;1718179;82;21370;-61
2021/03/27 08:24:28;;;;;;;23.98;18.95;;;;;;;17.62;36.90;99814.91;1720626;82;21058;-59
2021/03/27 08:27:28;;;;;;;18.75;16.55;;;;;;;17.38;37.07;99810.61;1727613;82;20916;-61
2021/03/27 08:30:33;;;;;;;20.37;18.02;;;;;;;17.29;37.29;99813.50;1736325;82;20940;-55
2021/03/27 08:33:36;;;;;;;20.17;17.75;;;;;;;17.11;37.17;99813.27;1738162;82;21134;-57
2021/03/27 08:36:21;;;;;;;19.32;17.32;;;;;;;16.91;37.75;99815.09;1740748;82;21255;-55
2021/03/27 08:39:23;;;;;;;20.00;17.82;;;;;;;16.96;37.72;99812.63;1691459;82;21160;-62
2021/03/27 08:42:05;;;;;;;19.57;17.48;;;;;;;16.99;37.61;99809.53;1720635;82;21054;-59
2021/03/27 08:45:00;;;;;;;20.37;16.77;;;;;;;17.07;37.53;99816.06;1720711;82;21098;-57
2021/03/27 08:47:50;;;;;;;18.37;16.40;;;;;;;17.10;37.67;99810.80;1697617;82;21196;-58
2021/03/27 08:50:59;;;;;;;23.12;17.65;;;;;;;17.25;37.56;99808.23;1731422;82;21394;-58
2021/03/27 08:54:11;;;;;;;18.40;16.70;;;;;;;17.46;36.78;99796.96;1720048;82;21614;-56
2021/03/27 08:57:19;;;;;;;17.50;15.75;;;;;;;17.37;36.71;99804.40;1719888;82;21257;-58
2021/03/27 09:00:20;;;;;;;17.00;15.15;;;;;;;17.24;36.51;99800.35;1669700;82;21600;-59
2021/03/27 09:03:25;;;;;;;18.32;15.98;;;;;;;17.13;36.49;99802.30;1708245;82;21381;-58
2021/03/27 09:06:31;;;;;;;16.25;14.58;;;;;;;17.02;36.02;99801.06;1704870;82;21373;-63
2021/03/27 09:09:29;;;;;;;17.70;15.05;;;;;;;16.98;36.43;99790.39;1720623;82;21022;-56
2021/03/27 09:12:22;;;;;;;16.52;15.00;;;;;;;16.93;35.82;99785.31;1721418;82;21033;-56
2021/03/27 09:15:22;;;;;;;17.42;15.50;;;;;;;16.86;36.41;99796.57;1720836;82;21110;-58
2021/03/27 09:18:28;;;;;;;16.85;15.05;;;;;;;16.72;36.03;99780.92;1689066;82;21197;-56
2021/03/27 09:21:25;;;;;;;21.10;16.73;;;;;;;16.70;36.56;99797.77;1719795;82;21353;-57
2021/03/27 09:24:05;;;;;;;17.07;15.18;;;;;;;16.82;36.08;99782.70;1712336;82;21016;-57
2021/03/27 09:27:08;;;;;;;16.12;14.63;;;;;;;16.97;34.70;99776.62;1712412;82;21065;-56
2021/03/27 09:30:21;;;;;;;16.02;14.07;;;;;;;16.85;34.89;99784.98;1720532;82;21098;-58
2021/03/27 09:33:01;;;;;;;20.60;15.53;;;;;;;16.89;34.80;99785.42;1719168;82;21205;-56
2021/03/27 09:35:48;;;;;;;19.65;16.75;;;;;;;16.94;34.83;99781.09;1727979;82;21457;-55
2021/03/27 09:38:24;;;;;;;16.97;15.13;;;;;;;17.01;34.84;99788.65;1720157;82;21079;-56
2021/03/27 09:41:39;;;;;;;17.25;15.48;;;;;;;17.00;33.89;99791.52;1713030;82;21136;-57
2021/03/27 09:45:00;;;;;;;16.02;14.33;;;;;;;16.84;33.60;99786.55;1712435;82;21094;-54
2021/03/27 09:47:46;;;;;;;18.12;15.30;;;;;;;16.61;33.73;99796.27;1712533;82;21221;-56
2021/03/27 09:50:40;;;;;;;14.58;13.08;;;;;;;16.46;33.53;99782.98;1711857;82;21290;-56
2021/03/27 09:53:43;;;;;;;15.60;13.48;;;;;;;16.41;33.03;99785.95;1712340;82;21162;-56
2021/03/27 09:56:37;;;;;;;14.70;13.20;;;;;;;16.44;32.58;99788.23;1712387;82;21051;-59
2021/03/27 09:59:33;;;;;;;15.30;13.22;;;;;;;16.55;32.13;99771.08;1712483;82;21039;-57
2021/03/27 10:02:30;;;;;;;14.15;12.65;;;;;;;16.63;31.48;99790.21;1712018;82;21099;-58
2021/03/27 10:05:09;;;;;;;12.75;11.10;;;;;;;16.50;31.16;99786.10;1712584;82;21204;-57
2021/03/27 10:08:18;;;;;;;15.05;13.50;;;;;;;16.42;31.32;99769.66;1712197;82;21006;-57
2021/03/27 10:11:00;;;;;;;16.55;13.72;;;;;;;16.49;30.78;99802.72;1712550;82;20924;-57
2021/03/27 10:14:01;;;;;;;16.62;14.68;;;;;;;16.55;32.10;99776.95;1703878;82;21098;-57
2021/03/27 10:17:02;;;;;;;15.72;13.95;;;;;;;16.53;32.62;99770.94;1681588;82;21146;-57
2021/03/27 10:19:51;;;;;;;12.50;10.82;;;;;;;16.76;31.98;99774.64;1712426;82;21389;-57
2021/03/27 10:22:40;;;;;;;12.60;10.70;;;;;;;16.87;30.54;99763.31;1720330;82;21205;-58
2021/03/27 10:25:28;;;;;;;14.03;12.53;;;;;;;16.73;30.46;99769.67;1720585;82;21344;-57
2021/03/27 10:28:26;;;;;;;13.90;12.18;;;;;;;16.48;31.54;99774.20;1720545;82;21126;-58
2021/03/27 10:30:58;;;;;;;12.60;11.33;;;;;;;16.36;32.17;99764.24;1720555;82;21066;-57
2021/03/27 10:34:05;;;;;;;12.95;10.03;;;;;;;16.27;31.81;99803.05;1720570;82;21431;-61
2021/03/27 10:36:53;;;;;;;13.72;10.75;;;;;;;16.08;31.13;99789.28;1722541;82;20932;-60
2021/03/27 10:39:44;;;;;;;14.78;11.00;;;;;;;15.96;31.44;99782.83;1720631;82;21011;-60
2021/03/27 10:42:38;;;;;;;12.53;11.35;;;;;;;16.00;33.43;99776.56;1720491;82;21556;-60
2021/03/27 10:45:28;;;;;;;13.85;12.33;;;;;;;16.41;32.60;99779.23;1720607;82;21165;-61
2021/03/27 10:48:07;;;;;;;14.78;12.88;;;;;;;16.28;32.41;99769.78;1720648;82;22128;-58
2021/03/27 10:51:02;;;;;;;17.75;13.50;;;;;;;16.00;33.41;99775.22;1720590;82;21067;-57
2021/03/27 10:54:01;;;;;;;16.60;13.13;;;;;;;15.64;34.08;99762.00;1720699;82;21031;-56
2021/03/27 10:57:09;;;;;;;13.22;11.85;;;;;;;15.37;35.03;99754.23;1718789;82;21051;-56
2021/03/27 11:00:00;;;;;;;10.48;9.48;;;;;;;15.42;34.74;99743.76;1720064;82;21102;-58
2021/03/27 11:02:50;;;;;;;14.07;10.68;;;;;;;15.58;33.22;99769.98;1719616;82;21436;-58
2021/03/27 11:05:51;;;;;;;11.50;9.85;;;;;;;15.64;33.04;99746.42;1720102;82;21202;-57
2021/03/27 11:08:45;;;;;;;12.47;11.22;;;;;;;15.53;32.74;99757.17;1686395;83;21186;-58
2021/03/27 11:12:01;;;;;;;9.88;8.80;;;;;;;15.38;32.68;99745.16;1729243;82;21090;-56
2021/03/27 11:15:18;;;;;;;11.97;8.95;;;;;;;15.22;32.74;99732.06;1720767;82;21205;-60
2021/03/27 11:17:58;;;;;;;10.90;8.58;;;;;;;15.14;31.75;99751.46;1720986;82;21400;-58
2021/03/27 11:21:17;;;;;;;8.58;5.75;;;;;;;14.99;31.51;99726.59;1726023;82;21030;-57
2021/03/27 11:24:19;;;;;;;8.93;6.72;;;;;;;14.98;30.59;99735.64;1720840;82;21098;-57
2021/03/27 11:27:13;;;;;;;7.55;6.75;;;;;;;14.78;31.22;99742.97;1720796;82;21204;-60
2021/03/27 11:30:28;;;;;;;8.28;7.47;;;;;;;14.83;31.38;99741.08;1703988;82;21125;-59
2021/03/27 11:33:15;;;;;;;8.48;7.58;;;;;;;14.89;32.10;99728.78;1725975;82;21055;-59
2021/03/27 11:36:09;;;;;;;13.10;8.88;;;;;;;14.90;32.09;99726.40;1719512;82;21924;-57
2021/03/27 11:39:19;;;;;;;11.80;10.00;;;;;;;14.83;32.36;99739.20;1720755;82;21408;-59
2021/03/27 11:42:09;;;;;;;9.13;8.08;;;;;;;14.71;32.14;99736.73;1722647;82;21082;-56
2021/03/27 11:45:00;;;;;;;8.73;7.83;;;;;;;14.66;33.08;99728.44;1722296;82;21094;-56
2021/03/27 11:47:45;;;;;;;10.75;7.87;;;;;;;14.80;33.33;99721.38;1720737;82;21233;-56
2021/03/27 11:50:21;;;;;;;9.88;7.37;;;;;;;14.87;32.61;99708.86;1720635;82;21189;-57
2021/03/27 11:53:44;;;;;;;9.85;7.40;;;;;;;14.84;32.38;99707.40;1720335;82;20999;-57
2021/03/27 11:56:30;;;;;;;9.45;8.18;;;;;;;14.71;33.36;99719.83;1731382;82;21142;-57
2021/03/27 12:02:56;;;;;;;9.05;7.15;;;;;;;14.72;33.62;99724.17;1734007;82;22135;-59
2021/03/27 12:05:44;;;;;;;8.93;7.58;;;;;;;14.67;33.75;99711.36;1727289;82;21078;-58
2021/03/27 12:08:28;;;;;;;10.58;9.05;;;;;;;14.53;33.54;99721.61;1730207;82;20960;-57
2021/03/27 12:11:04;;;;;;;9.35;8.33;;;;;;;14.36;34.21;99704.64;1720540;82;21532;-58
2021/03/27 12:14:03;;;;;;;9.98;7.67;;;;;;;14.27;34.78;99703.87;1724641;82;20935;-58
2021/03/27 12:16:37;;;;;;;9.03;7.97;;;;;;;14.30;34.72;99706.19;1733842;82;22113;-59
2021/03/27 12:19:31;;;;;;;11.05;8.58;;;;;;;14.35;34.96;99721.70;1733049;82;21026;-58
2021/03/27 12:22:11;;;;;;;12.75;10.18;;;;;;;14.28;34.91;99709.56;1697863;81;21035;-59
2021/03/27 12:24:54;;;;;;;9.63;8.45;;;;;;;14.15;35.18;99703.55;1741668;81;21141;-57
2021/03/27 12:27:32;;;;;;;9.65;8.05;;;;;;;14.12;35.34;99699.91;1751868;81;20999;-56
2021/03/27 12:32:53;;;;;;;8.63;7.83;;;;;;;14.00;35.43;99707.27;1729239;83;21106;-58
2021/03/27 12:35:31;;;;;;;16.73;9.00;;;;;;;13.88;35.47;99696.70;1723194;83;21034;-61
2021/03/27 12:38:25;;;;;;;9.73;7.55;;;;;;;13.90;35.64;99691.99;1672345;83;21306;-58
2021/03/27 12:41:07;;;;;;;9.53;7.87;;;;;;;14.01;35.49;99706.23;1728793;83;21145;-58
2021/03/27 12:43:45;;;;;;;9.03;8.13;;;;;;;14.03;35.71;99694.33;1725678;83;21379;-61
2021/03/27 12:46:34;;;;;;;10.90;8.65;;;;;;;13.84;35.73;99697.61;1718944;83;21189;-57
2021/03/27 12:49:23;;;;;;;9.33;7.65;;;;;;;13.66;35.96;99699.80;1698773;83;21152;-59
2021/03/27 12:52:16;;;;;;;10.68;9.58;;;;;;;13.53;36.74;99697.77;1728867;83;21141;-57
2021/03/27 12:55:06;;;;;;;10.23;8.75;;;;;;;13.44;37.71;99712.25;1727218;82;21181;-59
2021/03/27 12:57:58;;;;;;;9.00;8.08;;;;;;;13.29;37.73;99695.87;1714308;83;23940;-60
2021/03/27 13:00:45;;;;;;;11.00;9.70;;;;;;;13.23;37.97;99692.09;1646986;84;21607;-56
2021/03/27 13:03:34;;;;;;;11.28;10.08;;;;;;;13.14;38.18;99696.36;1679393;83;21149;-59
2021/03/27 13:06:24;;;;;;;10.23;9.23;;;;;;;12.99;38.56;99693.11;1649213;84;21153;-59
2021/03/27 13:09:24;;;;;;;10.75;9.15;;;;;;;12.92;38.70;99686.84;1657855;83;21172;-60
2021/03/27 13:12:13;;;;;;;10.88;9.60;;;;;;;12.93;38.81;99695.69;1709922;83;21286;-57
2021/03/27 13:15:19;;;;;;;15.05;11.00;;;;;;;12.88;38.84;99680.18;1720785;83;20966;-59
2021/03/27 13:18:34;;;;;;;13.55;10.50;;;;;;;12.87;39.24;99679.88;1720763;83;21159;-60
2021/03/27 13:21:20;;;;;;;14.15;10.40;;;;;;;12.90;39.17;99674.68;1720833;83;21005;-59
2021/03/27 13:24:20;;;;;;;13.13;10.25;;;;;;;12.93;39.33;99678.33;1718648;83;21099;-60
2021/03/27 13:27:08;;;;;;;12.80;10.28;;;;;;;12.95;38.71;99690.98;1718835;83;21313;-58